Sikuliaq — WDG7520 — position and weather

sailwx.info

Track history (hours):
 
Tides and Currents Weather Stations Pressure Air Temp Water Temp Dewpoint Dewpoint Depression Visibility Wind Speed Wind Dir Waves Ship Positions

Oceanographic research ship Sikuliaq (USA)

Owner: Mackay Communications, Raleigh, NC. More information available from US FCC via Universal Licensing System.

Last reported at 2020-Jan-28 18:00 UTC. Time now 2020-Jan-28 19:43 UTC.
Position N 47°36' W 122°18'.

Length 80 m; draft 6 m.

Type: Other ship. MMSI: 338417000.

Wind from 120 at 3 knots

Barometer 1013.5 mb
Air temperature 8.5 ° C
Dewpoint 7.3 ° C

Date/timePositionNaut miles runAvg speedWind from/ knotsBaromVisibWave heightAir tempDewpointWater temp
2020-Jan-28 18:00N 47°36' W 122°18'0 0.0 120 / 31013.5 8.5 7.3
2020-Jan-28 17:00N 47°36' W 122°18'0 0.0 110 / 21012.7 8.5 7.6
2020-Jan-28 16:00N 47°36' W 122°18'0 0.0 130 / 21011.7 8.1 7.3
2020-Jan-28 15:00N 47°36' W 122°18'0 0.0 130 / 31011.2 8.6 7.6
2020-Jan-28 14:00N 47°36' W 122°18'0 0.0 260 / 21010.7 8.2 6.9
2020-Jan-28 13:00N 47°36' W 122°18'0 0.0 120 / 21009.8 9.1 6.6
2020-Jan-28 12:00N 47°36' W 122°18'0 0.0 140 / 21010.1 8.5 7.3
2020-Jan-28 11:00N 47°36' W 122°18'0 0.0 130 / 21010.7 8.5 7.3
2020-Jan-28 10:00N 47°36' W 122°18'0 0.0 150 / 71010.4 8.5 6.9
2020-Jan-28 09:00N 47°36' W 122°18'0 0.0 140 / 41010.4 8.6 7.5
2020-Jan-28 08:00N 47°36' W 122°18'0 0.0 140 / 51010.6 8.5 6.9
2020-Jan-28 07:00N 47°36' W 122°18'0 0.0 110 / 41010.7 7.6 6.8
2020-Jan-28 06:00N 47°36' W 122°18'0 0.0 300 1010.7 7.7 6.5
2020-Jan-28 05:00N 47°36' W 122°18'0 0.0 180 / 11010.7 7.1 6.5
2020-Jan-28 04:00N 47°36' W 122°18'0 0.0 110 / 11010.8 7.0 6.6
2020-Jan-28 03:00N 47°36' W 122°18'0 0.0 110 / 71010.9 8.0 4.6
2020-Jan-28 02:00N 47°36' W 122°18'0 0.0 110 / 61013.2 8.1 4.8
2020-Jan-28 01:00N 47°36' W 122°18'0 0.0 130 / 21014.4 8.9 5.3
2020-Jan-28 00:00N 47°36' W 122°18'0 0.0 090 / 11015.1 10.1 3.6
2020-Jan-27 23:00N 47°36' W 122°18'0 0.0 120 / 21015.7 10.8 2.7
2020-Jan-27 22:00N 47°36' W 122°18'0 0.0 120 / 21017.4 10.7 2.7
2020-Jan-27 21:00N 47°36' W 122°18'0 0.0 140 / 21019.1 10.9 2.8
2020-Jan-27 20:00N 47°36' W 122°18'3 0.9 120 / 41020.1 11.1 2.7
2020-Jan-27 16:39N 47°39' W 122°19'0 0.0
2020-Jan-27 16:27N 47°39' W 122°19'3 0.7
2020-Jan-27 12:00N 47°36' W 122°18'0 0.0 160 / 91019.6 7.9 4.7
2020-Jan-27 11:00N 47°36' W 122°18'0 0.0 170 / 141019.4 8.4 5.0
2020-Jan-27 10:00N 47°36' W 122°18'0 0.0 150 / 41018.8 8.3 5.1
2020-Jan-27 09:00N 47°36' W 122°18'0 0.0 180 / 81018.2 8.7 5.7
2020-Jan-27 08:00N 47°36' W 122°18'0 0.0 170 / 101017.7 8.9 6.0
2020-Jan-27 07:00N 47°36' W 122°18'0 0.0 170 / 101017.3 9.2 5.9
2020-Jan-27 06:00N 47°36' W 122°18'0 0.0 160 / 111016.4 9.3 6.3
2020-Jan-27 05:00N 47°36' W 122°18'0 0.0 160 / 81015.8 9.0 6.6
2020-Jan-27 04:00N 47°36' W 122°18'0 0.0 150 / 91015.1 10.3 4.6
2020-Jan-27 03:00N 47°36' W 122°18'0 0.0 120 / 41014.7 10.4 4.9
2020-Jan-27 02:00N 47°36' W 122°18'0 0.0 150 / 61014.8 10.5 5.0
2020-Jan-27 01:00N 47°36' W 122°18'0 0.0 130 / 41015.1 9.9 5.8
2020-Jan-27 00:00N 47°36' W 122°18'0 0.0 150 / 61015.3 9.4 5.3
2020-Jan-26 23:00N 47°36' W 122°18'0 0.0 220 / 81014.7 11.8 4.9
2020-Jan-26 22:00N 47°36' W 122°18'0 0.0 170 / 141014.7 11.4 4.6
2020-Jan-26 21:00N 47°36' W 122°18'0 0.0 200 / 101015.2 10.9 5.2
2020-Jan-26 20:00N 47°36' W 122°18'0 0.0 170 / 111015.3 10.8 5.8
2020-Jan-26 19:00N 47°36' W 122°18'0 0.0 180 / 101015.6 10.4 6.4
2020-Jan-26 18:00N 47°36' W 122°18'0 0.0 170 / 91014.5 10.2 6.5
2020-Jan-26 17:00N 47°36' W 122°18'0 0.0 160 / 71013.1 9.9 7.4
2020-Jan-26 16:00N 47°36' W 122°18'0 0.0 170 / 101012.1 10.3 7.5
2020-Jan-26 15:00N 47°36' W 122°18'0 0.0 180 / 101010.8 10.8 8.2
2020-Jan-26 14:00N 47°36' W 122°18'0 0.0 150 / 61009.6 9.4 8.2
2020-Jan-26 13:00N 47°36' W 122°18'0 0.0 120 / 51009.0 9.6 7.9
2020-Jan-26 12:00N 47°36' W 122°18'0 0.0 130 / 41008.3 9.1 7.8
2020-Jan-26 11:00N 47°36' W 122°18'0 0.0 160 / 61007.4 9.6 7.5
2020-Jan-26 10:00N 47°36' W 122°18'0 0.0 180 / 41006.3 7.6 6.8
2020-Jan-26 09:00N 47°36' W 122°18'0 0.0 300 / 31007.7 8.5 6.3
2020-Jan-26 08:00N 47°36' W 122°18'0 0.0 160 / 31008.0 7.7 6.8
2020-Jan-26 07:00N 47°36' W 122°18'0 0.0 170 / 31009.1 8.1 6.7
2020-Jan-26 06:00N 47°36' W 122°18'0 0.0 040 / 41009.4 8.8 6.6
2020-Jan-26 05:00N 47°36' W 122°18'0 0.0 080 / 21011.0 9.3 6.8
2020-Jan-26 04:00N 47°36' W 122°18'0 0.0 060 / 41011.7 9.6 7.9
2020-Jan-26 03:00N 47°36' W 122°18'0 0.0 170 / 21013.4 8.6 8.1
2020-Jan-26 02:00N 47°36' W 122°18'0 0.0 040 / 11014.5 9.9 8.5
2020-Jan-26 01:00N 47°36' W 122°18'0 0.0 280 / 11015.3 10.7 8.3
2020-Jan-26 00:00N 47°36' W 122°18'0 0.0 230 / 51015.5 10.9 8.2
2020-Jan-25 12:00N 47°36' W 122°18'0 0.0 120 / 21012.6 8.4 7.5
2020-Jan-25 11:00N 47°36' W 122°18'0 0.0 120 / 11012.5 8.1 7.3
2020-Jan-25 10:00N 47°36' W 122°18'0 0.0 110 / 31013.0 8.5 7.5
2020-Jan-25 09:00N 47°36' W 122°18'0 0.0 120 / 21013.8 8.6 7.9
2020-Jan-25 08:00N 47°36' W 122°18'3 3.2 110 / 21014.3 9.1 8.5
2020-Jan-25 07:03N 47°39' W 122°19'354.2
2020-Jan-25 07:00N 47°36' W 122°18'0 0.0 150 / 21014.8 9.4 8.7
2020-Jan-25 06:00N 47°36' W 122°18'0 0.0 150 / 21015.4 9.5 8.4
2020-Jan-25 05:00N 47°36' W 122°18'0 0.0 120 / 21015.4 9.4 8.2
2020-Jan-25 04:00N 47°36' W 122°18'0 0.0 130 / 41015.4 9.5 8.5
2020-Jan-25 03:00N 47°36' W 122°18'0 0.0 190 / 61015.1 10.1 7.9
2020-Jan-25 02:00N 47°36' W 122°18'0 0.0 170 / 51014.8 10.2 7.3
2020-Jan-25 01:00N 47°36' W 122°18'0 0.0 160 / 81014.2 10.4 7.0
2020-Jan-25 00:00N 47°36' W 122°18'0 0.0 190 / 81013.9 10.7 7.2
2020-Jan-24 23:00N 47°36' W 122°18'0 0.0 180 / 121013.8 11.1 7.5
2020-Jan-24 22:00N 47°36' W 122°18'0 0.0 190 / 91013.8 10.3 7.4
2020-Jan-24 21:00N 47°36' W 122°18'0 0.0 200 / 131013.5 10.6 8.2
2020-Jan-24 20:00N 47°36' W 122°18'0 0.0 200 / 111013.3 10.7 7.5
2020-Jan-24 19:00N 47°36' W 122°18'0 0.0 190 / 91012.6 11.0 7.5
2020-Jan-24 18:00N 47°36' W 122°18'0 0.0 160 / 61011.7 10.9 8.3
2020-Jan-24 17:00N 47°36' W 122°18'0 0.0 120 / 31011.3 10.5 8.6
2020-Jan-24 16:00N 47°36' W 122°18'0 0.0 160 / 81011.0 10.5 8.5
2020-Jan-24 15:00N 47°36' W 122°18'0 0.0 160 / 41011.1 10.3 8.4
2020-Jan-24 14:00N 47°36' W 122°18'0 0.0 160 / 61010.8 10.9 8.8
2020-Jan-24 13:00N 47°36' W 122°18'0 0.0 170 / 111010.3 10.8 9.1
2020-Jan-24 12:00N 47°36' W 122°18'0 0.0 150 / 61009.7 10.5 9.3
2020-Jan-24 11:00N 47°36' W 122°18'0 0.0 140 / 31009.4 10.2 9.2
2020-Jan-24 10:00N 47°36' W 122°18'0 0.0 140 / 31008.9 10.8 8.4
2020-Jan-24 09:00N 47°36' W 122°18'0 0.0 120 / 31008.8 10.0 9.2
2020-Jan-24 08:00N 47°36' W 122°18'0 0.0 130 / 41009.5 10.1 9.1
2020-Jan-24 07:00N 47°36' W 122°18'0 0.0 130 / 21009.9 10.5 9.0
2020-Jan-24 06:00N 47°36' W 122°18'0 0.0 140 / 31009.7 10.8 8.8
2020-Jan-24 05:00N 47°36' W 122°18'0 0.0 120 / 41009.7 11.5 8.8
2020-Jan-24 04:00N 47°36' W 122°18'0 0.0 150 / 61009.9 11.5 9.3
2020-Jan-24 03:00N 47°36' W 122°18'0 0.0 150 / 61009.9 11.4 9.4
2020-Jan-24 02:00N 47°36' W 122°18'0 0.0 120 / 81010.2 11.510.3
2020-Jan-24 01:00N 47°36' W 122°18'0 0.0 130 / 41011.4 11.810.6
2020-Jan-24 00:00N 47°36' W 122°18'0 0.0 130 / 41011.4 12.311.1
2020-Jan-23 23:00N 47°36' W 122°18'0 0.0 130 / 41011.5 11.911.2
2020-Jan-23 22:00N 47°36' W 122°18'0 0.0 120 / 21012.0 11.711.3
2020-Jan-23 21:00N 47°36' W 122°18'0 0.0 100 / 71012.5 11.911.5
2020-Jan-23 20:00N 47°36' W 122°18'0 0.0 100 / 31013.2 11.710.9
2020-Jan-23 19:00N 47°36' W 122°18'0 0.0 130 / 41013.5 11.610.5
2020-Jan-23 18:00N 47°36' W 122°18'0 0.0 110 / 51013.6 11.310.4
2020-Jan-23 17:00N 47°36' W 122°18'0 0.0 100 / 71012.9 11.210.5
2020-Jan-23 16:00N 47°36' W 122°18'0 0.0 210 / 21013.5 11.110.3
2020-Jan-23 15:00N 47°36' W 122°18'0 0.0 110 / 21012.4 11.110.1
2020-Jan-23 14:00N 47°36' W 122°18'0 0.0 120 / 21012.8 11.5 9.8
2020-Jan-23 13:00N 47°36' W 122°18'0 0.0 160 / 21013.5 11.1 9.4
2020-Jan-23 12:00N 47°36' W 122°18'0 0.0 140 / 21013.3 11.6 9.1
2020-Jan-23 11:00N 47°36' W 122°18'0 0.0 120 / 21013.8 10.7 8.8
2020-Jan-23 10:00N 47°36' W 122°18'0 0.0 120 / 41013.6 10.2 8.6
2020-Jan-23 09:00N 47°36' W 122°18'0 0.0 140 / 21013.8 9.8 8.5
2020-Jan-23 08:00N 47°36' W 122°18'0 0.0 120 / 21014.1 9.2 7.4
2020-Jan-23 07:00N 47°36' W 122°18'0 0.0 110 / 21014.3 8.9 7.4
2020-Jan-23 06:00N 47°36' W 122°18'0 0.0 110 / 31014.2 9.2 7.2
2020-Jan-23 05:00N 47°36' W 122°18'0 0.0 120 / 21014.4 8.6 7.2
2020-Jan-23 04:00N 47°36' W 122°18'0 0.0 140 / 21014.4 8.5 7.1
2020-Jan-23 03:00N 47°36' W 122°18'0 0.0 140 / 21014.5 8.3 7.0
2020-Jan-23 02:00N 47°36' W 122°18'0 0.0 120 / 11014.4 8.2 6.9
2020-Jan-23 01:00N 47°36' W 122°18'0 0.0 120 / 21013.8 8.1 6.6
2020-Jan-23 00:00N 47°36' W 122°18'0 0.0 110 / 31013.7 8.0 6.7
2020-Jan-22 23:00N 47°36' W 122°18'0 0.0 120 / 21013.7 7.7 6.6
2020-Jan-22 22:00N 47°36' W 122°18'0 0.0 130 / 31013.8 7.4 5.9
2020-Jan-22 21:00N 47°36' W 122°18'0 0.0 120 / 21014.5 7.3 6.2
2020-Jan-22 20:00N 47°36' W 122°18'0 0.0 110 / 41015.2 7.4 5.6
2020-Jan-22 19:00N 47°36' W 122°18'0 0.0 120 / 31015.9 7.4 6.1
2020-Jan-22 18:00N 47°36' W 122°18'0 0.0 130 / 21016.3 7.3 6.2
2020-Jan-22 17:00N 47°36' W 122°18'0 0.0 120 / 21016.1 7.4 6.0
2020-Jan-22 16:00N 47°36' W 122°18'0 0.0 160 / 61015.8 7.8 5.2
2020-Jan-22 15:00N 47°36' W 122°18'0 0.0 140 / 21015.5 7.8 5.1
2020-Jan-22 14:00N 47°36' W 122°18'0 0.0 160 / 71015.6 7.8 4.6
2020-Jan-22 13:00N 47°36' W 122°18'0 0.0 130 / 41015.3 7.8 4.4
2020-Jan-22 12:00N 47°36' W 122°18'0 0.0 140 / 41014.9 8.0 4.5
2020-Jan-22 11:00N 47°36' W 122°18'0 0.0 160 / 71014.9 8.4 4.3
2020-Jan-22 10:00N 47°36' W 122°18'0 0.0 160 / 141014.0 8.0 4.2
2020-Jan-22 09:00N 47°36' W 122°18'0 0.0 160 / 121013.0 8.1 4.5
2020-Jan-22 08:00N 47°36' W 122°18'0 0.0 180 / 131012.5 8.3 4.5
2020-Jan-22 07:00N 47°36' W 122°18'0 0.0 160 / 61012.1 7.9 5.3
2020-Jan-22 06:00N 47°36' W 122°18'0 0.0 180 / 141011.4 7.8 4.2
2020-Jan-22 05:00N 47°36' W 122°18'0 0.0 190 / 141010.3 8.1 5.4
2020-Jan-22 04:00N 47°36' W 122°18'0 0.0 200 / 71010.0 7.8 5.6
2020-Jan-22 03:00N 47°36' W 122°18'0 0.0 150 / 81008.9 7.6 5.3
2020-Jan-22 02:00N 47°36' W 122°18'0 0.0 150 / 81008.1 8.1 4.5
2020-Jan-22 01:00N 47°36' W 122°18'0 0.0 160 / 101007.5 7.8 4.5
2020-Jan-22 00:00N 47°36' W 122°18'315.6 160 / 91007.3 8.3 5.4
2020-Jan-21 23:48N 47°39' W 122°19'3 3.8
2020-Jan-21 23:00N 47°36' W 122°18'0 0.0 160 / 91006.9 8.6 4.9
2020-Jan-21 22:00N 47°36' W 122°18'0 0.0 170 / 141005.8 8.9 3.8
2020-Jan-21 21:00N 47°36' W 122°18'0 0.0 180 / 191005.9 9.2 3.8
2020-Jan-21 20:00N 47°36' W 122°18'0 0.0 170 / 71005.4 9.8 3.5
2020-Jan-21 19:00N 47°36' W 122°18'0 0.0 140 / 51005.6 9.7 3.9
2020-Jan-21 18:00N 47°36' W 122°18'0 0.0 110 / 21005.7 9.7 3.7
2020-Jan-21 17:00N 47°36' W 122°18'0 0.0 140 / 31005.8 9.0 4.5
2020-Jan-21 16:00N 47°36' W 122°18'0 0.0 120 / 41005.1 8.7 5.3
2020-Jan-21 15:00N 47°36' W 122°18'0 0.0 130 / 31004.6 8.7 6.2
2020-Jan-21 14:00N 47°36' W 122°18'0 0.0 170 / 121003.6 9.4 5.6
2020-Jan-21 13:00N 47°36' W 122°18'0 0.0 140 / 31003.2 8.4 5.8
2020-Jan-21 12:00N 47°36' W 122°18'3 5.1 120 / 21002.7 8.2 5.8
2020-Jan-21 11:24N 47°39' W 122°19'3 7.5
2020-Jan-21 11:00N 47°36' W 122°18'0 0.0 140 / 21002.4 8.9 5.4
2020-Jan-21 10:00N 47°36' W 122°18'0 0.0 320 / 51003.0 8.5 5.8
2020-Jan-21 09:00N 47°36' W 122°18'0 0.0 160 / 61002.5 7.1 5.2
2020-Jan-21 08:00N 47°36' W 122°18'0 0.0 1003.3 7.4 5.3
2020-Jan-21 07:00N 47°36' W 122°18'0 0.0 350 / 21004.3 7.5 5.1
2020-Jan-21 06:00N 47°36' W 122°18'0 0.0 170 / 11005.1 7.3 5.3
2020-Jan-21 05:00N 47°36' W 122°18'0 0.0 160 / 21006.3 7.5 5.6
2020-Jan-21 04:00N 47°36' W 122°18'0 0.0 140 / 11006.8 7.1 6.1
2020-Jan-21 03:00N 47°36' W 122°18'0 0.0 160 / 21007.7 7.3 5.9
2020-Jan-21 02:00N 47°36' W 122°18'0 0.0 200 / 21008.4 7.9 5.9
2020-Jan-21 01:00N 47°36' W 122°18'0 0.0 010 1009.0 9.5 5.8
2020-Jan-21 00:00N 47°36' W 122°18'0 0.0 180 / 11009.5 10.4 5.3
2020-Jan-20 23:00N 47°36' W 122°18'0 0.0 250 / 21010.2 10.4 6.0
2020-Jan-20 22:00N 47°36' W 122°18'0 0.0 170 / 21010.9 10.0 6.3
2020-Jan-20 21:00N 47°36' W 122°18'0 0.0 130 / 21011.6 9.9 6.2
2020-Jan-20 20:00N 47°36' W 122°18'0 0.0 300 / 11012.5 10.5 5.8
2020-Jan-20 19:00N 47°36' W 122°18'0 0.0 320 / 21013.5 8.8 5.8
2020-Jan-20 18:00N 47°36' W 122°18'0 0.0 080 / 21013.4 8.9 5.5
2020-Jan-20 17:00N 47°36' W 122°18'0 0.0 250 / 31014.0 9.6 4.2
2020-Jan-20 16:00N 47°36' W 122°18'0 0.0 290 / 31014.0 10.1 3.9
2020-Jan-20 15:00N 47°36' W 122°18'0 0.0 110 / 31013.7 9.9 4.3
2020-Jan-20 14:00N 47°36' W 122°18'0 0.0 160 / 41013.8 10.7 3.3
2020-Jan-20 13:00N 47°36' W 122°18'0 0.0 180 / 21013.4 10.4 2.4
2020-Jan-20 12:00N 47°36' W 122°18'0 0.0 290 / 21013.0 9.1 4.9
2020-Jan-20 11:00N 47°36' W 122°18'0 0.0 170 / 31012.9 6.7 4.8
2020-Jan-20 10:00N 47°36' W 122°18'0 0.0 330 1013.1 6.7 5.2
2020-Jan-20 09:00N 47°36' W 122°18'0 0.0 290 / 21013.2 9.1 4.9
2020-Jan-20 08:00N 47°36' W 122°18'0 0.0 280 1013.8 6.4 6.0
2020-Jan-20 07:00N 47°36' W 122°18'0 0.0 150 / 21014.7 6.3 5.3
2020-Jan-20 06:00N 47°36' W 122°18'0 0.0 230 1014.8 7.1 6.5
2020-Jan-20 05:00N 47°36' W 122°18'0 0.0 140 / 11014.8 7.1 6.6
2020-Jan-20 04:00N 47°36' W 122°18'0 0.0 320 / 31015.3 7.9 6.9
2020-Jan-20 03:00N 47°36' W 122°18'0 0.0 330 / 21015.5 9.0 7.5
2020-Jan-20 02:00N 47°36' W 122°18'0 0.0 310 / 11015.8 8.4 7.4
2020-Jan-20 01:00N 47°36' W 122°18'0 0.0 190 / 21016.5 9.3 7.9
2020-Jan-20 00:00N 47°36' W 122°18'0 0.0 320 / 11018.0 10.4 8.1
2020-Jan-19 23:00N 47°36' W 122°18'0 0.0 260 / 31019.1 10.9 8.1
2020-Jan-19 22:00N 47°36' W 122°18'0 0.0 260 / 31020.0 9.9 7.2
2020-Jan-19 21:00N 47°36' W 122°18'0 0.0 160 / 31020.7 9.0 6.7
2020-Jan-19 20:00N 47°36' W 122°18'0 0.0 110 / 21022.0 9.1 6.7
2020-Jan-19 19:00N 47°36' W 122°18'0 0.0 260 / 11022.5 8.5 5.3
2020-Jan-19 18:00N 47°36' W 122°18'0 0.0 360 / 21022.4 9.0 3.9
2020-Jan-19 17:00N 47°36' W 122°18'0 0.0 170 / 41022.2 7.3 4.7
2020-Jan-19 16:00N 47°36' W 122°18'0 0.0 160 / 11022.4 7.0 4.5
2020-Jan-19 15:00N 47°36' W 122°18'0 0.0 140 / 11022.6 7.3 4.3
2020-Jan-19 14:00N 47°36' W 122°18'0 0.0 180 / 21022.9 7.8 3.5
2020-Jan-19 13:00N 47°36' W 122°18'0 0.0 150 / 21023.2 7.5 4.8
2020-Jan-19 12:00N 47°36' W 122°18'0 0.0 080 / 11023.9 7.3 4.5
2020-Jan-19 11:00N 47°36' W 122°18'0 0.0 160 / 21024.1 7.3 4.5
2020-Jan-19 10:00N 47°36' W 122°18'0 0.0 130 / 11024.3 6.9 4.4
2020-Jan-19 09:00N 47°36' W 122°18'0 0.0 150 / 21024.3 7.5 3.6
2020-Jan-19 08:00N 47°36' W 122°18'0 0.0 150 / 11024.6 7.9 3.0
2020-Jan-19 07:00N 47°36' W 122°18'0 0.0 120 / 31024.4 8.2 2.6
2020-Jan-19 06:00N 47°36' W 122°18'0 0.0 120 / 31024.3 8.9 2.5
2020-Jan-19 05:00N 47°36' W 122°18'0 0.0 130 / 21023.9 9.2 3.1
2020-Jan-19 04:00N 47°36' W 122°18'0 0.0 150 / 51023.7 9.3 3.5
2020-Jan-19 03:00N 47°36' W 122°18'0 0.0 150 / 31023.2 9.3 4.4
2020-Jan-19 02:00N 47°36' W 122°18'0 0.0 140 / 11022.7 9.5 5.7
2020-Jan-19 01:00N 47°36' W 122°18'0 0.0 140 / 21022.0 10.3 5.0
2020-Jan-19 00:00N 47°36' W 122°18'0 0.0 150 / 31021.4 10.8 5.3
2020-Jan-18 23:00N 47°36' W 122°18'0 0.0 170 / 91021.0 11.0 5.1
2020-Jan-18 22:00N 47°36' W 122°18'0 0.0 140 / 21020.6 9.2 5.8
2020-Jan-18 21:00N 47°36' W 122°18'0 0.0 100 / 51020.2 9.0 4.4
2020-Jan-18 20:00N 47°36' W 122°18'0 0.0 130 / 21020.1 7.4 4.4
2020-Jan-18 19:00N 47°36' W 122°18'0 0.0 130 / 21020.2 6.3 4.2
2020-Jan-18 18:00N 47°36' W 122°18'   140 / 21019.5 5.1 3.9
Track history (hours):
 
Tides and Currents Weather Stations Pressure Air Temp Water Temp Dewpoint Dewpoint Depression Visibility Wind Speed Wind Dir Waves Ship Positions

Oceanographic research ship Sikuliaq (USA)

Owner: Mackay Communications, Raleigh, NC. More information available from US FCC via Universal Licensing System.

Last reported at 2020-Jan-28 18:00 UTC. Time now 2020-Jan-28 19:43 UTC.
Position N 47°36' W 122°18'.

Length 80 m; draft 6 m.

Type: Other ship. MMSI: 338417000.

Wind from 120 at 3 knots

Barometer 1013.5 mb
Air temperature 8.5 ° C
Dewpoint 7.3 ° C

Date/timePositionNaut miles runAvg speedWind from/ knotsBaromVisibWave heightAir tempDewpointWater temp
2020-Jan-28 18:00N 47°36' W 122°18'0 0.0 120 / 31013.5 8.5 7.3
2020-Jan-28 17:00N 47°36' W 122°18'0 0.0 110 / 21012.7 8.5 7.6
2020-Jan-28 16:00N 47°36' W 122°18'0 0.0 130 / 21011.7 8.1 7.3
2020-Jan-28 15:00N 47°36' W 122°18'0 0.0 130 / 31011.2 8.6 7.6
2020-Jan-28 14:00N 47°36' W 122°18'0 0.0 260 / 21010.7 8.2 6.9
2020-Jan-28 13:00N 47°36' W 122°18'0 0.0 120 / 21009.8 9.1 6.6
2020-Jan-28 12:00N 47°36' W 122°18'0 0.0 140 / 21010.1 8.5 7.3
2020-Jan-28 11:00N 47°36' W 122°18'0 0.0 130 / 21010.7 8.5 7.3
2020-Jan-28 10:00N 47°36' W 122°18'0 0.0 150 / 71010.4 8.5 6.9
2020-Jan-28 09:00N 47°36' W 122°18'0 0.0 140 / 41010.4 8.6 7.5
2020-Jan-28 08:00N 47°36' W 122°18'0 0.0 140 / 51010.6 8.5 6.9
2020-Jan-28 07:00N 47°36' W 122°18'0 0.0 110 / 41010.7 7.6 6.8
2020-Jan-28 06:00N 47°36' W 122°18'0 0.0 300 1010.7 7.7 6.5
2020-Jan-28 05:00N 47°36' W 122°18'0 0.0 180 / 11010.7 7.1 6.5
2020-Jan-28 04:00N 47°36' W 122°18'0 0.0 110 / 11010.8 7.0 6.6
2020-Jan-28 03:00N 47°36' W 122°18'0 0.0 110 / 71010.9 8.0 4.6
2020-Jan-28 02:00N 47°36' W 122°18'0 0.0 110 / 61013.2 8.1 4.8
2020-Jan-28 01:00N 47°36' W 122°18'0 0.0 130 / 21014.4 8.9 5.3
2020-Jan-28 00:00N 47°36' W 122°18'0 0.0 090 / 11015.1 10.1 3.6
2020-Jan-27 23:00N 47°36' W 122°18'0 0.0 120 / 21015.7 10.8 2.7
2020-Jan-27 22:00N 47°36' W 122°18'0 0.0 120 / 21017.4 10.7 2.7
2020-Jan-27 21:00N 47°36' W 122°18'0 0.0 140 / 21019.1 10.9 2.8
2020-Jan-27 20:00N 47°36' W 122°18'3 0.9 120 / 41020.1 11.1 2.7
2020-Jan-27 16:39N 47°39' W 122°19'0 0.0
2020-Jan-27 16:27N 47°39' W 122°19'3 0.7
2020-Jan-27 12:00N 47°36' W 122°18'0 0.0 160 / 91019.6 7.9 4.7
2020-Jan-27 11:00N 47°36' W 122°18'0 0.0 170 / 141019.4 8.4 5.0
2020-Jan-27 10:00N 47°36' W 122°18'0 0.0 150 / 41018.8 8.3 5.1
2020-Jan-27 09:00N 47°36' W 122°18'0 0.0 180 / 81018.2 8.7 5.7
2020-Jan-27 08:00N 47°36' W 122°18'0 0.0 170 / 101017.7 8.9 6.0
2020-Jan-27 07:00N 47°36' W 122°18'0 0.0 170 / 101017.3 9.2 5.9
2020-Jan-27 06:00N 47°36' W 122°18'0 0.0 160 / 111016.4 9.3 6.3
2020-Jan-27 05:00N 47°36' W 122°18'0 0.0 160 / 81015.8 9.0 6.6
2020-Jan-27 04:00N 47°36' W 122°18'0 0.0 150 / 91015.1 10.3 4.6
2020-Jan-27 03:00N 47°36' W 122°18'0 0.0 120 / 41014.7 10.4 4.9
2020-Jan-27 02:00N 47°36' W 122°18'0 0.0 150 / 61014.8 10.5 5.0
2020-Jan-27 01:00N 47°36' W 122°18'0 0.0 130 / 41015.1 9.9 5.8
2020-Jan-27 00:00N 47°36' W 122°18'0 0.0 150 / 61015.3 9.4 5.3
2020-Jan-26 23:00N 47°36' W 122°18'0 0.0 220 / 81014.7 11.8 4.9
2020-Jan-26 22:00N 47°36' W 122°18'0 0.0 170 / 141014.7 11.4 4.6
2020-Jan-26 21:00N 47°36' W 122°18'0 0.0 200 / 101015.2 10.9 5.2
2020-Jan-26 20:00N 47°36' W 122°18'0 0.0 170 / 111015.3 10.8 5.8
2020-Jan-26 19:00N 47°36' W 122°18'0 0.0 180 / 101015.6 10.4 6.4
2020-Jan-26 18:00N 47°36' W 122°18'0 0.0 170 / 91014.5 10.2 6.5
2020-Jan-26 17:00N 47°36' W 122°18'0 0.0 160 / 71013.1 9.9 7.4
2020-Jan-26 16:00N 47°36' W 122°18'0 0.0 170 / 101012.1 10.3 7.5
2020-Jan-26 15:00N 47°36' W 122°18'0 0.0 180 / 101010.8 10.8 8.2
2020-Jan-26 14:00N 47°36' W 122°18'0 0.0 150 / 61009.6 9.4 8.2
2020-Jan-26 13:00N 47°36' W 122°18'0 0.0 120 / 51009.0 9.6 7.9
2020-Jan-26 12:00N 47°36' W 122°18'0 0.0 130 / 41008.3 9.1 7.8
2020-Jan-26 11:00N 47°36' W 122°18'0 0.0 160 / 61007.4 9.6 7.5
2020-Jan-26 10:00N 47°36' W 122°18'0 0.0 180 / 41006.3 7.6 6.8
2020-Jan-26 09:00N 47°36' W 122°18'0 0.0 300 / 31007.7 8.5 6.3
2020-Jan-26 08:00N 47°36' W 122°18'0 0.0 160 / 31008.0 7.7 6.8
2020-Jan-26 07:00N 47°36' W 122°18'0 0.0 170 / 31009.1 8.1 6.7
2020-Jan-26 06:00N 47°36' W 122°18'0 0.0 040 / 41009.4 8.8 6.6
2020-Jan-26 05:00N 47°36' W 122°18'0 0.0 080 / 21011.0 9.3 6.8
2020-Jan-26 04:00N 47°36' W 122°18'0 0.0 060 / 41011.7 9.6 7.9
2020-Jan-26 03:00N 47°36' W 122°18'0 0.0 170 / 21013.4 8.6 8.1
2020-Jan-26 02:00N 47°36' W 122°18'0 0.0 040 / 11014.5 9.9 8.5
2020-Jan-26 01:00N 47°36' W 122°18'0 0.0 280 / 11015.3 10.7 8.3
2020-Jan-26 00:00N 47°36' W 122°18'0 0.0 230 / 51015.5 10.9 8.2
2020-Jan-25 12:00N 47°36' W 122°18'0 0.0 120 / 21012.6 8.4 7.5
2020-Jan-25 11:00N 47°36' W 122°18'0 0.0 120 / 11012.5 8.1 7.3
2020-Jan-25 10:00N 47°36' W 122°18'0 0.0 110 / 31013.0 8.5 7.5
2020-Jan-25 09:00N 47°36' W 122°18'0 0.0 120 / 21013.8 8.6 7.9
2020-Jan-25 08:00N 47°36' W 122°18'3 3.2 110 / 21014.3 9.1 8.5
2020-Jan-25 07:03N 47°39' W 122°19'354.2
2020-Jan-25 07:00N 47°36' W 122°18'0 0.0 150 / 21014.8 9.4 8.7
2020-Jan-25 06:00N 47°36' W 122°18'0 0.0 150 / 21015.4 9.5 8.4
2020-Jan-25 05:00N 47°36' W 122°18'0 0.0 120 / 21015.4 9.4 8.2
2020-Jan-25 04:00N 47°36' W 122°18'0 0.0 130 / 41015.4 9.5 8.5
2020-Jan-25 03:00N 47°36' W 122°18'0 0.0 190 / 61015.1 10.1 7.9
2020-Jan-25 02:00N 47°36' W 122°18'0 0.0 170 / 51014.8 10.2 7.3
2020-Jan-25 01:00N 47°36' W 122°18'0 0.0 160 / 81014.2 10.4 7.0
2020-Jan-25 00:00N 47°36' W 122°18'0 0.0 190 / 81013.9 10.7 7.2
2020-Jan-24 23:00N 47°36' W 122°18'0 0.0 180 / 121013.8 11.1 7.5
2020-Jan-24 22:00N 47°36' W 122°18'0 0.0 190 / 91013.8 10.3 7.4
2020-Jan-24 21:00N 47°36' W 122°18'0 0.0 200 / 131013.5 10.6 8.2
2020-Jan-24 20:00N 47°36' W 122°18'0 0.0 200 / 111013.3 10.7 7.5
2020-Jan-24 19:00N 47°36' W 122°18'0 0.0 190 / 91012.6 11.0 7.5
2020-Jan-24 18:00N 47°36' W 122°18'0 0.0 160 / 61011.7 10.9 8.3
2020-Jan-24 17:00N 47°36' W 122°18'0 0.0 120 / 31011.3 10.5 8.6
2020-Jan-24 16:00N 47°36' W 122°18'0 0.0 160 / 81011.0 10.5 8.5
2020-Jan-24 15:00N 47°36' W 122°18'0 0.0 160 / 41011.1 10.3 8.4
2020-Jan-24 14:00N 47°36' W 122°18'0 0.0 160 / 61010.8 10.9 8.8
2020-Jan-24 13:00N 47°36' W 122°18'0 0.0 170 / 111010.3 10.8 9.1
2020-Jan-24 12:00N 47°36' W 122°18'0 0.0 150 / 61009.7 10.5 9.3
2020-Jan-24 11:00N 47°36' W 122°18'0 0.0 140 / 31009.4 10.2 9.2
2020-Jan-24 10:00N 47°36' W 122°18'0 0.0 140 / 31008.9 10.8 8.4
2020-Jan-24 09:00N 47°36' W 122°18'0 0.0 120 / 31008.8 10.0 9.2
2020-Jan-24 08:00N 47°36' W 122°18'0 0.0 130 / 41009.5 10.1 9.1
2020-Jan-24 07:00N 47°36' W 122°18'0 0.0 130 / 21009.9 10.5 9.0
2020-Jan-24 06:00N 47°36' W 122°18'0 0.0 140 / 31009.7 10.8 8.8
2020-Jan-24 05:00N 47°36' W 122°18'0 0.0 120 / 41009.7 11.5 8.8
2020-Jan-24 04:00N 47°36' W 122°18'0 0.0 150 / 61009.9 11.5 9.3
2020-Jan-24 03:00N 47°36' W 122°18'0 0.0 150 / 61009.9 11.4 9.4
2020-Jan-24 02:00N 47°36' W 122°18'0 0.0 120 / 81010.2 11.510.3
2020-Jan-24 01:00N 47°36' W 122°18'0 0.0 130 / 41011.4 11.810.6
2020-Jan-24 00:00N 47°36' W 122°18'0 0.0 130 / 41011.4 12.311.1
2020-Jan-23 23:00N 47°36' W 122°18'0 0.0 130 / 41011.5 11.911.2
2020-Jan-23 22:00N 47°36' W 122°18'0 0.0 120 / 21012.0 11.711.3
2020-Jan-23 21:00N 47°36' W 122°18'0 0.0 100 / 71012.5 11.911.5
2020-Jan-23 20:00N 47°36' W 122°18'0 0.0 100 / 31013.2 11.710.9
2020-Jan-23 19:00N 47°36' W 122°18'0 0.0 130 / 41013.5 11.610.5
2020-Jan-23 18:00N 47°36' W 122°18'0 0.0 110 / 51013.6 11.310.4
2020-Jan-23 17:00N 47°36' W 122°18'0 0.0 100 / 71012.9 11.210.5
2020-Jan-23 16:00N 47°36' W 122°18'0 0.0 210 / 21013.5 11.110.3
2020-Jan-23 15:00N 47°36' W 122°18'0 0.0 110 / 21012.4 11.110.1
2020-Jan-23 14:00N 47°36' W 122°18'0 0.0 120 / 21012.8 11.5 9.8
2020-Jan-23 13:00N 47°36' W 122°18'0 0.0 160 / 21013.5 11.1 9.4
2020-Jan-23 12:00N 47°36' W 122°18'0 0.0 140 / 21013.3 11.6 9.1
2020-Jan-23 11:00N 47°36' W 122°18'0 0.0 120 / 21013.8 10.7 8.8
2020-Jan-23 10:00N 47°36' W 122°18'0 0.0 120 / 41013.6 10.2 8.6
2020-Jan-23 09:00N 47°36' W 122°18'0 0.0 140 / 21013.8 9.8 8.5
2020-Jan-23 08:00N 47°36' W 122°18'0 0.0 120 / 21014.1 9.2 7.4
2020-Jan-23 07:00N 47°36' W 122°18'0 0.0 110 / 21014.3 8.9 7.4
2020-Jan-23 06:00N 47°36' W 122°18'0 0.0 110 / 31014.2 9.2 7.2
2020-Jan-23 05:00N 47°36' W 122°18'0 0.0 120 / 21014.4 8.6 7.2
2020-Jan-23 04:00N 47°36' W 122°18'0 0.0 140 / 21014.4 8.5 7.1
2020-Jan-23 03:00N 47°36' W 122°18'0 0.0 140 / 21014.5 8.3 7.0
2020-Jan-23 02:00N 47°36' W 122°18'0 0.0 120 / 11014.4 8.2 6.9
2020-Jan-23 01:00N 47°36' W 122°18'0 0.0 120 / 21013.8 8.1 6.6
2020-Jan-23 00:00N 47°36' W 122°18'0 0.0 110 / 31013.7 8.0 6.7
2020-Jan-22 23:00N 47°36' W 122°18'0 0.0 120 / 21013.7 7.7 6.6
2020-Jan-22 22:00N 47°36' W 122°18'0 0.0 130 / 31013.8 7.4 5.9
2020-Jan-22 21:00N 47°36' W 122°18'0 0.0 120 / 21014.5 7.3 6.2
2020-Jan-22 20:00N 47°36' W 122°18'0 0.0 110 / 41015.2 7.4 5.6
2020-Jan-22 19:00N 47°36' W 122°18'0 0.0 120 / 31015.9 7.4 6.1
2020-Jan-22 18:00N 47°36' W 122°18'0 0.0 130 / 21016.3 7.3 6.2
2020-Jan-22 17:00N 47°36' W 122°18'0 0.0 120 / 21016.1 7.4 6.0
2020-Jan-22 16:00N 47°36' W 122°18'0 0.0 160 / 61015.8 7.8 5.2
2020-Jan-22 15:00N 47°36' W 122°18'0 0.0 140 / 21015.5 7.8 5.1
2020-Jan-22 14:00N 47°36' W 122°18'0 0.0 160 / 71015.6 7.8 4.6
2020-Jan-22 13:00N 47°36' W 122°18'0 0.0 130 / 41015.3 7.8 4.4
2020-Jan-22 12:00N 47°36' W 122°18'0 0.0 140 / 41014.9 8.0 4.5
2020-Jan-22 11:00N 47°36' W 122°18'0 0.0 160 / 71014.9 8.4 4.3
2020-Jan-22 10:00N 47°36' W 122°18'0 0.0 160 / 141014.0 8.0 4.2
2020-Jan-22 09:00N 47°36' W 122°18'0 0.0 160 / 121013.0 8.1 4.5
2020-Jan-22 08:00N 47°36' W 122°18'0 0.0 180 / 131012.5 8.3 4.5
2020-Jan-22 07:00N 47°36' W 122°18'0 0.0 160 / 61012.1 7.9 5.3
2020-Jan-22 06:00N 47°36' W 122°18'0 0.0 180 / 141011.4 7.8 4.2
2020-Jan-22 05:00N 47°36' W 122°18'0 0.0 190 / 141010.3 8.1 5.4
2020-Jan-22 04:00N 47°36' W 122°18'0 0.0 200 / 71010.0 7.8 5.6
2020-Jan-22 03:00N 47°36' W 122°18'0 0.0 150 / 81008.9 7.6 5.3
2020-Jan-22 02:00N 47°36' W 122°18'0 0.0 150 / 81008.1 8.1 4.5
2020-Jan-22 01:00N 47°36' W 122°18'0 0.0 160 / 101007.5 7.8 4.5
2020-Jan-22 00:00N 47°36' W 122°18'315.6 160 / 91007.3 8.3 5.4
2020-Jan-21 23:48N 47°39' W 122°19'3 3.8
2020-Jan-21 23:00N 47°36' W 122°18'0 0.0 160 / 91006.9 8.6 4.9
2020-Jan-21 22:00N 47°36' W 122°18'0 0.0 170 / 141005.8 8.9 3.8
2020-Jan-21 21:00N 47°36' W 122°18'0 0.0 180 / 191005.9 9.2 3.8
2020-Jan-21 20:00N 47°36' W 122°18'0 0.0 170 / 71005.4 9.8 3.5
2020-Jan-21 19:00N 47°36' W 122°18'0 0.0 140 / 51005.6 9.7 3.9
2020-Jan-21 18:00N 47°36' W 122°18'0 0.0 110 / 21005.7 9.7 3.7
2020-Jan-21 17:00N 47°36' W 122°18'0 0.0 140 / 31005.8 9.0 4.5
2020-Jan-21 16:00N 47°36' W 122°18'0 0.0 120 / 41005.1 8.7 5.3
2020-Jan-21 15:00N 47°36' W 122°18'0 0.0 130 / 31004.6 8.7 6.2
2020-Jan-21 14:00N 47°36' W 122°18'0 0.0 170 / 121003.6 9.4 5.6
2020-Jan-21 13:00N 47°36' W 122°18'0 0.0 140 / 31003.2 8.4 5.8
2020-Jan-21 12:00N 47°36' W 122°18'3 5.1 120 / 21002.7 8.2 5.8
2020-Jan-21 11:24N 47°39' W 122°19'3 7.5
2020-Jan-21 11:00N 47°36' W 122°18'0 0.0 140 / 21002.4 8.9 5.4
2020-Jan-21 10:00N 47°36' W 122°18'0 0.0 320 / 51003.0 8.5 5.8
2020-Jan-21 09:00N 47°36' W 122°18'0 0.0 160 / 61002.5 7.1 5.2
2020-Jan-21 08:00N 47°36' W 122°18'0 0.0 1003.3 7.4 5.3
2020-Jan-21 07:00N 47°36' W 122°18'0 0.0 350 / 21004.3 7.5 5.1
2020-Jan-21 06:00N 47°36' W 122°18'0 0.0 170 / 11005.1 7.3 5.3
2020-Jan-21 05:00N 47°36' W 122°18'0 0.0 160 / 21006.3 7.5 5.6
2020-Jan-21 04:00N 47°36' W 122°18'0 0.0 140 / 11006.8 7.1 6.1
2020-Jan-21 03:00N 47°36' W 122°18'0 0.0 160 / 21007.7 7.3 5.9
2020-Jan-21 02:00N 47°36' W 122°18'0 0.0 200 / 21008.4 7.9 5.9
2020-Jan-21 01:00N 47°36' W 122°18'0 0.0 010 1009.0 9.5 5.8
2020-Jan-21 00:00N 47°36' W 122°18'0 0.0 180 / 11009.5 10.4 5.3
2020-Jan-20 23:00N 47°36' W 122°18'0 0.0 250 / 21010.2 10.4 6.0
2020-Jan-20 22:00N 47°36' W 122°18'0 0.0 170 / 21010.9 10.0 6.3
2020-Jan-20 21:00N 47°36' W 122°18'0 0.0 130 / 21011.6 9.9 6.2
2020-Jan-20 20:00N 47°36' W 122°18'0 0.0 300 / 11012.5 10.5 5.8
2020-Jan-20 19:00N 47°36' W 122°18'0 0.0 320 / 21013.5 8.8 5.8
2020-Jan-20 18:00N 47°36' W 122°18'0 0.0 080 / 21013.4 8.9 5.5
2020-Jan-20 17:00N 47°36' W 122°18'0 0.0 250 / 31014.0 9.6 4.2
2020-Jan-20 16:00N 47°36' W 122°18'0 0.0 290 / 31014.0 10.1 3.9
2020-Jan-20 15:00N 47°36' W 122°18'0 0.0 110 / 31013.7 9.9 4.3
2020-Jan-20 14:00N 47°36' W 122°18'0 0.0 160 / 41013.8 10.7 3.3
2020-Jan-20 13:00N 47°36' W 122°18'0 0.0 180 / 21013.4 10.4 2.4
2020-Jan-20 12:00N 47°36' W 122°18'0 0.0 290 / 21013.0 9.1 4.9
2020-Jan-20 11:00N 47°36' W 122°18'0 0.0 170 / 31012.9 6.7 4.8
2020-Jan-20 10:00N 47°36' W 122°18'0 0.0 330 1013.1 6.7 5.2
2020-Jan-20 09:00N 47°36' W 122°18'0 0.0 290 / 21013.2 9.1 4.9
2020-Jan-20 08:00N 47°36' W 122°18'0 0.0 280 1013.8 6.4 6.0
2020-Jan-20 07:00N 47°36' W 122°18'0 0.0 150 / 21014.7 6.3 5.3
2020-Jan-20 06:00N 47°36' W 122°18'0 0.0 230 1014.8 7.1 6.5
2020-Jan-20 05:00N 47°36' W 122°18'0 0.0 140 / 11014.8 7.1 6.6
2020-Jan-20 04:00N 47°36' W 122°18'0 0.0 320 / 31015.3 7.9 6.9
2020-Jan-20 03:00N 47°36' W 122°18'0 0.0 330 / 21015.5 9.0 7.5
2020-Jan-20 02:00N 47°36' W 122°18'0 0.0 310 / 11015.8 8.4 7.4
2020-Jan-20 01:00N 47°36' W 122°18'0 0.0 190 / 21016.5 9.3 7.9
2020-Jan-20 00:00N 47°36' W 122°18'0 0.0 320 / 11018.0 10.4 8.1
2020-Jan-19 23:00N 47°36' W 122°18'0 0.0 260 / 31019.1 10.9 8.1
2020-Jan-19 22:00N 47°36' W 122°18'0 0.0 260 / 31020.0 9.9 7.2
2020-Jan-19 21:00N 47°36' W 122°18'0 0.0 160 / 31020.7 9.0 6.7
2020-Jan-19 20:00N 47°36' W 122°18'0 0.0 110 / 21022.0 9.1 6.7
2020-Jan-19 19:00N 47°36' W 122°18'0 0.0 260 / 11022.5 8.5 5.3
2020-Jan-19 18:00N 47°36' W 122°18'0 0.0 360 / 21022.4 9.0 3.9
2020-Jan-19 17:00N 47°36' W 122°18'0 0.0 170 / 41022.2 7.3 4.7
2020-Jan-19 16:00N 47°36' W 122°18'0 0.0 160 / 11022.4 7.0 4.5
2020-Jan-19 15:00N 47°36' W 122°18'0 0.0 140 / 11022.6 7.3 4.3
2020-Jan-19 14:00N 47°36' W 122°18'0 0.0 180 / 21022.9 7.8 3.5
2020-Jan-19 13:00N 47°36' W 122°18'0 0.0 150 / 21023.2 7.5 4.8
2020-Jan-19 12:00N 47°36' W 122°18'0 0.0 080 / 11023.9 7.3 4.5
2020-Jan-19 11:00N 47°36' W 122°18'0 0.0 160 / 21024.1 7.3 4.5
2020-Jan-19 10:00N 47°36' W 122°18'0 0.0 130 / 11024.3 6.9 4.4
2020-Jan-19 09:00N 47°36' W 122°18'0 0.0 150 / 21024.3 7.5 3.6
2020-Jan-19 08:00N 47°36' W 122°18'0 0.0 150 / 11024.6 7.9 3.0
2020-Jan-19 07:00N 47°36' W 122°18'0 0.0 120 / 31024.4 8.2 2.6
2020-Jan-19 06:00N 47°36' W 122°18'0 0.0 120 / 31024.3 8.9 2.5
2020-Jan-19 05:00N 47°36' W 122°18'0 0.0 130 / 21023.9 9.2 3.1
2020-Jan-19 04:00N 47°36' W 122°18'0 0.0 150 / 51023.7 9.3 3.5
2020-Jan-19 03:00N 47°36' W 122°18'0 0.0 150 / 31023.2 9.3 4.4
2020-Jan-19 02:00N 47°36' W 122°18'0 0.0 140 / 11022.7 9.5 5.7
2020-Jan-19 01:00N 47°36' W 122°18'0 0.0 140 / 21022.0 10.3 5.0
2020-Jan-19 00:00N 47°36' W 122°18'0 0.0 150 / 31021.4 10.8 5.3
2020-Jan-18 23:00N 47°36' W 122°18'0 0.0 170 / 91021.0 11.0 5.1
2020-Jan-18 22:00N 47°36' W 122°18'0 0.0 140 / 21020.6 9.2 5.8
2020-Jan-18 21:00N 47°36' W 122°18'0 0.0 100 / 51020.2 9.0 4.4
2020-Jan-18 20:00N 47°36' W 122°18'0 0.0 130 / 21020.1 7.4 4.4
2020-Jan-18 19:00N 47°36' W 122°18'0 0.0 130 / 21020.2 6.3 4.2
2020-Jan-18 18:00N 47°36' W 122°18'   140 / 21019.5 5.1 3.9

Dump ship's entire track history